sensor_id;sensor_type;location;lat;lon;timestamp;P1;durP1;ratioP1;P2;durP2;ratioP2
7683;SDS011;3884;48.616;12.872;2022-12-29T00:01:32;15.50;;;13.90;;
7683;SDS011;3884;48.616;12.872;2022-12-29T00:03:59;16.27;;;12.97;;
7683;SDS011;3884;48.616;12.872;2022-12-29T00:06:26;16.03;;;13.60;;
7683;SDS011;3884;48.616;12.872;2022-12-29T00:08:53;14.93;;;13.33;;
7683;SDS011;3884;48.616;12.872;2022-12-29T00:11:22;16.60;;;13.60;;
7683;SDS011;3884;48.616;12.872;2022-12-29T00:13:52;14.83;;;13.23;;
7683;SDS011;3884;48.616;12.872;2022-12-29T00:16:45;15.73;;;12.80;;
7683;SDS011;3884;48.616;12.872;2022-12-29T00:19:12;14.40;;;12.67;;
7683;SDS011;3884;48.616;12.872;2022-12-29T00:21:53;16.67;;;13.33;;
7683;SDS011;3884;48.616;12.872;2022-12-29T00:24:38;16.10;;;12.87;;
7683;SDS011;3884;48.616;12.872;2022-12-29T00:27:22;14.90;;;13.00;;
7683;SDS011;3884;48.616;12.872;2022-12-29T00:30:09;15.50;;;13.07;;
7683;SDS011;3884;48.616;12.872;2022-12-29T00:32:55;15.87;;;13.33;;
7683;SDS011;3884;48.616;12.872;2022-12-29T00:35:41;15.67;;;13.20;;
7683;SDS011;3884;48.616;12.872;2022-12-29T00:38:12;15.50;;;13.20;;
7683;SDS011;3884;48.616;12.872;2022-12-29T00:40:57;15.07;;;12.87;;
7683;SDS011;3884;48.616;12.872;2022-12-29T00:43:42;16.33;;;13.63;;
7683;SDS011;3884;48.616;12.872;2022-12-29T00:46:27;15.50;;;12.93;;
7683;SDS011;3884;48.616;12.872;2022-12-29T00:48:54;16.43;;;13.07;;
7683;SDS011;3884;48.616;12.872;2022-12-29T00:51:39;14.67;;;11.90;;
7683;SDS011;3884;48.616;12.872;2022-12-29T00:54:06;15.30;;;12.60;;
7683;SDS011;3884;48.616;12.872;2022-12-29T00:56:34;15.87;;;12.23;;
7683;SDS011;3884;48.616;12.872;2022-12-29T00:59:01;16.53;;;13.70;;
7683;SDS011;3884;48.616;12.872;2022-12-29T01:01:29;15.53;;;13.17;;
7683;SDS011;3884;48.616;12.872;2022-12-29T01:03:56;16.70;;;13.77;;
7683;SDS011;3884;48.616;12.872;2022-12-29T01:06:24;16.60;;;13.60;;
7683;SDS011;3884;48.616;12.872;2022-12-29T01:08:51;15.83;;;13.13;;
7683;SDS011;3884;48.616;12.872;2022-12-29T01:11:32;16.97;;;14.07;;
7683;SDS011;3884;48.616;12.872;2022-12-29T01:13:59;17.93;;;13.57;;
7683;SDS011;3884;48.616;12.872;2022-12-29T01:16:26;16.33;;;13.60;;
7683;SDS011;3884;48.616;12.872;2022-12-29T01:18:55;14.23;;;12.73;;
7683;SDS011;3884;48.616;12.872;2022-12-29T01:21:22;14.70;;;12.67;;
7683;SDS011;3884;48.616;12.872;2022-12-29T01:23:50;16.67;;;14.03;;
7683;SDS011;3884;48.616;12.872;2022-12-29T01:26:17;15.73;;;13.97;;
7683;SDS011;3884;48.616;12.872;2022-12-29T01:28:45;18.00;;;13.97;;
7683;SDS011;3884;48.616;12.872;2022-12-29T01:31:13;15.30;;;12.77;;
7683;SDS011;3884;48.616;12.872;2022-12-29T01:33:41;16.73;;;14.67;;
7683;SDS011;3884;48.616;12.872;2022-12-29T01:36:11;15.80;;;14.13;;
7683;SDS011;3884;48.616;12.872;2022-12-29T01:38:40;15.17;;;12.90;;
7683;SDS011;3884;48.616;12.872;2022-12-29T01:41:08;17.47;;;14.17;;
7683;SDS011;3884;48.616;12.872;2022-12-29T01:43:41;16.00;;;14.30;;
7683;SDS011;3884;48.616;12.872;2022-12-29T01:46:13;15.27;;;13.33;;
7683;SDS011;3884;48.616;12.872;2022-12-29T01:48:46;17.03;;;14.53;;
7683;SDS011;3884;48.616;12.872;2022-12-29T01:51:16;15.87;;;14.10;;
7683;SDS011;3884;48.616;12.872;2022-12-29T01:53:44;17.67;;;14.10;;
7683;SDS011;3884;48.616;12.872;2022-12-29T01:56:12;16.53;;;14.83;;
7683;SDS011;3884;48.616;12.872;2022-12-29T01:58:45;16.10;;;14.43;;
7683;SDS011;3884;48.616;12.872;2022-12-29T02:01:15;16.13;;;13.70;;
7683;SDS011;3884;48.616;12.872;2022-12-29T02:03:45;16.07;;;13.83;;
7683;SDS011;3884;48.616;12.872;2022-12-29T02:06:14;16.60;;;14.10;;
7683;SDS011;3884;48.616;12.872;2022-12-29T02:08:47;16.67;;;14.60;;
7683;SDS011;3884;48.616;12.872;2022-12-29T02:11:17;17.67;;;15.07;;
7683;SDS011;3884;48.616;12.872;2022-12-29T02:13:44;21.07;;;15.30;;
7683;SDS011;3884;48.616;12.872;2022-12-29T02:16:15;18.20;;;15.47;;
7683;SDS011;3884;48.616;12.872;2022-12-29T02:18:59;19.87;;;16.73;;
7683;SDS011;3884;48.616;12.872;2022-12-29T02:21:50;18.20;;;16.20;;
7683;SDS011;3884;48.616;12.872;2022-12-29T02:24:43;19.17;;;16.03;;
7683;SDS011;3884;48.616;12.872;2022-12-29T02:30:33;18.87;;;15.87;;
7683;SDS011;3884;48.616;12.872;2022-12-29T02:33:07;19.77;;;15.17;;
7683;SDS011;3884;48.616;12.872;2022-12-29T02:35:48;17.50;;;15.07;;
7683;SDS011;3884;48.616;12.872;2022-12-29T02:41:16;17.40;;;15.30;;
7683;SDS011;3884;48.616;12.872;2022-12-29T02:43:50;20.00;;;15.70;;
7683;SDS011;3884;48.616;12.872;2022-12-29T02:46:25;18.90;;;15.23;;
7683;SDS011;3884;48.616;12.872;2022-12-29T02:49:01;18.03;;;15.60;;
7683;SDS011;3884;48.616;12.872;2022-12-29T02:51:36;18.30;;;14.43;;
7683;SDS011;3884;48.616;12.872;2022-12-29T02:54:06;17.77;;;14.30;;
7683;SDS011;3884;48.616;12.872;2022-12-29T02:56:51;16.60;;;14.77;;
7683;SDS011;3884;48.616;12.872;2022-12-29T02:59:18;15.30;;;13.47;;
7683;SDS011;3884;48.616;12.872;2022-12-29T03:01:55;18.40;;;14.67;;
7683;SDS011;3884;48.616;12.872;2022-12-29T03:04:50;18.70;;;14.97;;
7683;SDS011;3884;48.616;12.872;2022-12-29T03:07:39;18.43;;;14.73;;
7683;SDS011;3884;48.616;12.872;2022-12-29T03:10:15;16.87;;;13.97;;
7683;SDS011;3884;48.616;12.872;2022-12-29T03:12:53;16.40;;;13.93;;
7683;SDS011;3884;48.616;12.872;2022-12-29T03:15:45;17.10;;;14.50;;
7683;SDS011;3884;48.616;12.872;2022-12-29T03:21:20;16.90;;;13.90;;
7683;SDS011;3884;48.616;12.872;2022-12-29T03:24:16;16.43;;;14.00;;
7683;SDS011;3884;48.616;12.872;2022-12-29T03:26:46;17.03;;;13.67;;
7683;SDS011;3884;48.616;12.872;2022-12-29T03:29:17;15.93;;;13.77;;
7683;SDS011;3884;48.616;12.872;2022-12-29T03:31:48;17.23;;;13.30;;
7683;SDS011;3884;48.616;12.872;2022-12-29T03:34:17;16.83;;;13.70;;
7683;SDS011;3884;48.616;12.872;2022-12-29T03:36:47;15.23;;;13.40;;
7683;SDS011;3884;48.616;12.872;2022-12-29T03:39:18;17.33;;;14.50;;
7683;SDS011;3884;48.616;12.872;2022-12-29T03:41:48;15.87;;;12.80;;
7683;SDS011;3884;48.616;12.872;2022-12-29T03:44:18;14.63;;;13.10;;
7683;SDS011;3884;48.616;12.872;2022-12-29T03:46:45;15.73;;;14.03;;
7683;SDS011;3884;48.616;12.872;2022-12-29T03:49:12;17.30;;;13.77;;
7683;SDS011;3884;48.616;12.872;2022-12-29T03:51:41;16.97;;;13.87;;
7683;SDS011;3884;48.616;12.872;2022-12-29T03:54:08;14.70;;;12.83;;
7683;SDS011;3884;48.616;12.872;2022-12-29T03:56:35;17.63;;;13.57;;
7683;SDS011;3884;48.616;12.872;2022-12-29T03:59:02;14.87;;;12.57;;
7683;SDS011;3884;48.616;12.872;2022-12-29T04:01:35;15.93;;;12.43;;
7683;SDS011;3884;48.616;12.872;2022-12-29T04:04:03;14.53;;;12.10;;
7683;SDS011;3884;48.616;12.872;2022-12-29T04:06:30;15.53;;;12.00;;
7683;SDS011;3884;48.616;12.872;2022-12-29T04:09:03;14.80;;;12.27;;
7683;SDS011;3884;48.616;12.872;2022-12-29T04:11:34;14.07;;;12.57;;
7683;SDS011;3884;48.616;12.872;2022-12-29T04:14:02;13.93;;;12.40;;
7683;SDS011;3884;48.616;12.872;2022-12-29T04:16:32;13.67;;;11.63;;
7683;SDS011;3884;48.616;12.872;2022-12-29T04:19:01;14.67;;;13.07;;
7683;SDS011;3884;48.616;12.872;2022-12-29T04:21:28;16.20;;;12.47;;
7683;SDS011;3884;48.616;12.872;2022-12-29T04:23:57;14.43;;;11.90;;
7683;SDS011;3884;48.616;12.872;2022-12-29T04:26:26;12.97;;;11.60;;
7683;SDS011;3884;48.616;12.872;2022-12-29T04:29:00;17.33;;;12.20;;
7683;SDS011;3884;48.616;12.872;2022-12-29T04:31:47;14.13;;;11.97;;
7683;SDS011;3884;48.616;12.872;2022-12-29T04:34:15;15.70;;;12.93;;
7683;SDS011;3884;48.616;12.872;2022-12-29T04:36:42;15.03;;;11.70;;
7683;SDS011;3884;48.616;12.872;2022-12-29T04:39:09;13.90;;;11.83;;
7683;SDS011;3884;48.616;12.872;2022-12-29T04:41:39;13.37;;;11.33;;
7683;SDS011;3884;48.616;12.872;2022-12-29T04:44:11;13.23;;;11.77;;
7683;SDS011;3884;48.616;12.872;2022-12-29T04:46:56;12.90;;;11.27;;
7683;SDS011;3884;48.616;12.872;2022-12-29T04:49:47;15.63;;;12.03;;
7683;SDS011;3884;48.616;12.872;2022-12-29T04:52:46;13.90;;;11.63;;
7683;SDS011;3884;48.616;12.872;2022-12-29T04:55:13;13.93;;;11.50;;
7683;SDS011;3884;48.616;12.872;2022-12-29T04:57:42;12.53;;;11.23;;
7683;SDS011;3884;48.616;12.872;2022-12-29T05:00:13;15.30;;;11.53;;
7683;SDS011;3884;48.616;12.872;2022-12-29T05:02:41;16.23;;;12.90;;
7683;SDS011;3884;48.616;12.872;2022-12-29T05:05:08;16.67;;;13.20;;
7683;SDS011;3884;48.616;12.872;2022-12-29T05:07:40;14.40;;;12.50;;
7683;SDS011;3884;48.616;12.872;2022-12-29T05:10:08;15.40;;;13.40;;
7683;SDS011;3884;48.616;12.872;2022-12-29T05:12:36;15.37;;;12.80;;
7683;SDS011;3884;48.616;12.872;2022-12-29T05:15:08;17.13;;;12.53;;
7683;SDS011;3884;48.616;12.872;2022-12-29T05:17:36;14.60;;;12.27;;
7683;SDS011;3884;48.616;12.872;2022-12-29T05:20:05;14.70;;;12.27;;
7683;SDS011;3884;48.616;12.872;2022-12-29T05:22:34;13.77;;;12.07;;
7683;SDS011;3884;48.616;12.872;2022-12-29T05:25:03;16.87;;;12.57;;
7683;SDS011;3884;48.616;12.872;2022-12-29T05:27:37;13.53;;;12.00;;
7683;SDS011;3884;48.616;12.872;2022-12-29T05:30:26;17.33;;;13.50;;
7683;SDS011;3884;48.616;12.872;2022-12-29T05:32:53;14.20;;;12.17;;
7683;SDS011;3884;48.616;12.872;2022-12-29T05:35:20;13.87;;;11.93;;
7683;SDS011;3884;48.616;12.872;2022-12-29T05:37:47;15.93;;;11.90;;
7683;SDS011;3884;48.616;12.872;2022-12-29T05:40:14;13.20;;;11.80;;
7683;SDS011;3884;48.616;12.872;2022-12-29T05:42:42;16.00;;;11.83;;
7683;SDS011;3884;48.616;12.872;2022-12-29T05:45:19;14.97;;;12.10;;
7683;SDS011;3884;48.616;12.872;2022-12-29T05:47:55;14.67;;;11.40;;
7683;SDS011;3884;48.616;12.872;2022-12-29T05:50:39;13.93;;;11.60;;
7683;SDS011;3884;48.616;12.872;2022-12-29T05:53:10;13.03;;;11.13;;
7683;SDS011;3884;48.616;12.872;2022-12-29T05:55:38;12.97;;;11.67;;
7683;SDS011;3884;48.616;12.872;2022-12-29T05:58:05;14.50;;;11.50;;
7683;SDS011;3884;48.616;12.872;2022-12-29T06:00:32;12.80;;;10.80;;
7683;SDS011;3884;48.616;12.872;2022-12-29T06:03:00;12.47;;;11.10;;
7683;SDS011;3884;48.616;12.872;2022-12-29T06:05:27;13.40;;;10.13;;
7683;SDS011;3884;48.616;12.872;2022-12-29T06:07:56;11.63;;;10.43;;
7683;SDS011;3884;48.616;12.872;2022-12-29T06:10:23;13.60;;;10.70;;
7683;SDS011;3884;48.616;12.872;2022-12-29T06:13:01;12.27;;;10.57;;
7683;SDS011;3884;48.616;12.872;2022-12-29T06:15:31;11.20;;;10.10;;
7683;SDS011;3884;48.616;12.872;2022-12-29T06:17:58;10.47;;;9.37;;
7683;SDS011;3884;48.616;12.872;2022-12-29T06:20:27;11.13;;;9.70;;
7683;SDS011;3884;48.616;12.872;2022-12-29T06:22:54;12.33;;;9.57;;
7683;SDS011;3884;48.616;12.872;2022-12-29T06:25:22;10.97;;;9.33;;
7683;SDS011;3884;48.616;12.872;2022-12-29T06:27:49;10.27;;;9.07;;
7683;SDS011;3884;48.616;12.872;2022-12-29T06:30:16;10.73;;;9.07;;
7683;SDS011;3884;48.616;12.872;2022-12-29T06:32:44;9.73;;;8.57;;
7683;SDS011;3884;48.616;12.872;2022-12-29T06:35:12;11.17;;;8.60;;
7683;SDS011;3884;48.616;12.872;2022-12-29T06:37:45;11.53;;;8.83;;
7683;SDS011;3884;48.616;12.872;2022-12-29T06:40:12;10.00;;;8.53;;
7683;SDS011;3884;48.616;12.872;2022-12-29T06:43:15;10.37;;;9.27;;
7683;SDS011;3884;48.616;12.872;2022-12-29T06:46:02;11.73;;;10.23;;
7683;SDS011;3884;48.616;12.872;2022-12-29T06:48:29;13.70;;;10.97;;
7683;SDS011;3884;48.616;12.872;2022-12-29T06:50:56;12.90;;;11.10;;
7683;SDS011;3884;48.616;12.872;2022-12-29T06:53:24;13.13;;;11.27;;
7683;SDS011;3884;48.616;12.872;2022-12-29T06:55:52;13.07;;;11.20;;
7683;SDS011;3884;48.616;12.872;2022-12-29T06:58:19;10.30;;;9.30;;
7683;SDS011;3884;48.616;12.872;2022-12-29T07:00:46;12.53;;;11.23;;
7683;SDS011;3884;48.616;12.872;2022-12-29T07:03:13;13.33;;;11.60;;
7683;SDS011;3884;48.616;12.872;2022-12-29T07:05:40;11.23;;;9.33;;
7683;SDS011;3884;48.616;12.872;2022-12-29T07:08:07;12.07;;;10.87;;
7683;SDS011;3884;48.616;12.872;2022-12-29T07:10:36;12.43;;;11.20;;
7683;SDS011;3884;48.616;12.872;2022-12-29T07:13:03;13.23;;;11.83;;
7683;SDS011;3884;48.616;12.872;2022-12-29T07:15:30;11.97;;;10.70;;
7683;SDS011;3884;48.616;12.872;2022-12-29T07:17:57;17.70;;;13.67;;
7683;SDS011;3884;48.616;12.872;2022-12-29T07:20:24;13.07;;;10.83;;
7683;SDS011;3884;48.616;12.872;2022-12-29T07:22:51;13.10;;;11.37;;
7683;SDS011;3884;48.616;12.872;2022-12-29T07:25:18;14.43;;;11.53;;
7683;SDS011;3884;48.616;12.872;2022-12-29T07:27:46;13.20;;;11.80;;
7683;SDS011;3884;48.616;12.872;2022-12-29T07:30:13;11.23;;;9.27;;
7683;SDS011;3884;48.616;12.872;2022-12-29T07:32:41;13.20;;;10.87;;
7683;SDS011;3884;48.616;12.872;2022-12-29T07:35:08;13.77;;;9.80;;
7683;SDS011;3884;48.616;12.872;2022-12-29T07:37:35;9.40;;;8.43;;
7683;SDS011;3884;48.616;12.872;2022-12-29T07:40:02;11.40;;;9.37;;
7683;SDS011;3884;48.616;12.872;2022-12-29T07:42:30;26.53;;;22.57;;
7683;SDS011;3884;48.616;12.872;2022-12-29T07:44:59;14.73;;;13.17;;
7683;SDS011;3884;48.616;12.872;2022-12-29T07:47:34;14.67;;;12.23;;
7683;SDS011;3884;48.616;12.872;2022-12-29T07:50:01;12.87;;;11.50;;
7683;SDS011;3884;48.616;12.872;2022-12-29T07:52:28;13.70;;;11.30;;
7683;SDS011;3884;48.616;12.872;2022-12-29T07:54:55;8.97;;;8.03;;
7683;SDS011;3884;48.616;12.872;2022-12-29T07:57:22;11.97;;;9.23;;
7683;SDS011;3884;48.616;12.872;2022-12-29T07:59:49;14.67;;;12.27;;
7683;SDS011;3884;48.616;12.872;2022-12-29T08:02:17;11.50;;;9.07;;
7683;SDS011;3884;48.616;12.872;2022-12-29T08:04:44;9.93;;;7.93;;
7683;SDS011;3884;48.616;12.872;2022-12-29T08:07:11;8.70;;;7.63;;
7683;SDS011;3884;48.616;12.872;2022-12-29T08:09:38;8.23;;;7.10;;
7683;SDS011;3884;48.616;12.872;2022-12-29T08:12:07;8.30;;;7.50;;
7683;SDS011;3884;48.616;12.872;2022-12-29T08:14:36;10.17;;;8.17;;
7683;SDS011;3884;48.616;12.872;2022-12-29T08:17:03;8.70;;;7.67;;
7683;SDS011;3884;48.616;12.872;2022-12-29T08:19:31;9.97;;;7.27;;
7683;SDS011;3884;48.616;12.872;2022-12-29T08:21:58;10.07;;;7.90;;
7683;SDS011;3884;48.616;12.872;2022-12-29T08:24:25;9.90;;;7.73;;
7683;SDS011;3884;48.616;12.872;2022-12-29T08:26:52;9.20;;;7.67;;
7683;SDS011;3884;48.616;12.872;2022-12-29T08:29:20;8.83;;;7.90;;
7683;SDS011;3884;48.616;12.872;2022-12-29T08:31:47;10.57;;;7.30;;
7683;SDS011;3884;48.616;12.872;2022-12-29T08:34:14;7.93;;;7.07;;
7683;SDS011;3884;48.616;12.872;2022-12-29T08:36:43;8.13;;;7.13;;
7683;SDS011;3884;48.616;12.872;2022-12-29T08:39:10;8.10;;;7.23;;
7683;SDS011;3884;48.616;12.872;2022-12-29T08:41:37;7.70;;;6.83;;
7683;SDS011;3884;48.616;12.872;2022-12-29T08:44:04;7.10;;;6.40;;
7683;SDS011;3884;48.616;12.872;2022-12-29T08:46:31;8.13;;;6.43;;
7683;SDS011;3884;48.616;12.872;2022-12-29T08:48:58;7.27;;;6.20;;
7683;SDS011;3884;48.616;12.872;2022-12-29T08:51:25;7.83;;;5.93;;
7683;SDS011;3884;48.616;12.872;2022-12-29T08:53:54;6.10;;;5.50;;
7683;SDS011;3884;48.616;12.872;2022-12-29T08:56:21;7.87;;;6.43;;
7683;SDS011;3884;48.616;12.872;2022-12-29T08:58:52;6.37;;;5.40;;
7683;SDS011;3884;48.616;12.872;2022-12-29T09:01:20;8.53;;;6.37;;
7683;SDS011;3884;48.616;12.872;2022-12-29T09:03:48;6.43;;;5.67;;
7683;SDS011;3884;48.616;12.872;2022-12-29T09:06:16;8.67;;;6.60;;
7683;SDS011;3884;48.616;12.872;2022-12-29T09:08:44;7.90;;;6.87;;
7683;SDS011;3884;48.616;12.872;2022-12-29T09:11:13;11.37;;;8.87;;
7683;SDS011;3884;48.616;12.872;2022-12-29T09:13:42;13.77;;;10.90;;
7683;SDS011;3884;48.616;12.872;2022-12-29T09:16:09;13.17;;;10.77;;
7683;SDS011;3884;48.616;12.872;2022-12-29T09:18:37;12.07;;;10.23;;
7683;SDS011;3884;48.616;12.872;2022-12-29T09:21:05;14.57;;;10.13;;
7683;SDS011;3884;48.616;12.872;2022-12-29T09:23:33;25.57;;;18.13;;
7683;SDS011;3884;48.616;12.872;2022-12-29T09:26:00;16.70;;;13.23;;
7683;SDS011;3884;48.616;12.872;2022-12-29T09:28:30;45.57;;;29.57;;
7683;SDS011;3884;48.616;12.872;2022-12-29T09:30:57;12.37;;;9.20;;
7683;SDS011;3884;48.616;12.872;2022-12-29T09:33:24;6.77;;;6.00;;
7683;SDS011;3884;48.616;12.872;2022-12-29T09:35:52;6.90;;;6.20;;
7683;SDS011;3884;48.616;12.872;2022-12-29T09:38:21;18.53;;;13.53;;
7683;SDS011;3884;48.616;12.872;2022-12-29T09:40:49;36.47;;;28.00;;
7683;SDS011;3884;48.616;12.872;2022-12-29T09:43:32;14.30;;;11.00;;
7683;SDS011;3884;48.616;12.872;2022-12-29T09:46:22;6.57;;;5.23;;
7683;SDS011;3884;48.616;12.872;2022-12-29T09:48:52;6.63;;;5.93;;
7683;SDS011;3884;48.616;12.872;2022-12-29T09:51:26;6.67;;;5.83;;
7683;SDS011;3884;48.616;12.872;2022-12-29T09:53:55;6.10;;;3.93;;
7683;SDS011;3884;48.616;12.872;2022-12-29T09:56:29;4.63;;;4.13;;
7683;SDS011;3884;48.616;12.872;2022-12-29T09:58:58;5.20;;;4.03;;
7683;SDS011;3884;48.616;12.872;2022-12-29T10:01:31;5.60;;;4.73;;
7683;SDS011;3884;48.616;12.872;2022-12-29T10:04:02;5.17;;;4.67;;
7683;SDS011;3884;48.616;12.872;2022-12-29T10:06:32;9.30;;;7.43;;
7683;SDS011;3884;48.616;12.872;2022-12-29T10:09:05;24.17;;;19.67;;
7683;SDS011;3884;48.616;12.872;2022-12-29T10:11:49;27.30;;;21.67;;
7683;SDS011;3884;48.616;12.872;2022-12-29T10:14:32;15.93;;;12.37;;
7683;SDS011;3884;48.616;12.872;2022-12-29T10:17:15;9.80;;;8.90;;
7683;SDS011;3884;48.616;12.872;2022-12-29T10:19:55;7.33;;;6.63;;
7683;SDS011;3884;48.616;12.872;2022-12-29T10:22:33;6.63;;;5.40;;
7683;SDS011;3884;48.616;12.872;2022-12-29T10:25:10;5.93;;;5.33;;
7683;SDS011;3884;48.616;12.872;2022-12-29T10:27:42;5.33;;;4.67;;
7683;SDS011;3884;48.616;12.872;2022-12-29T10:30:14;4.90;;;4.17;;
7683;SDS011;3884;48.616;12.872;2022-12-29T10:32:46;4.33;;;3.80;;
7683;SDS011;3884;48.616;12.872;2022-12-29T10:35:17;4.40;;;4.00;;
7683;SDS011;3884;48.616;12.872;2022-12-29T10:37:48;5.93;;;4.63;;
7683;SDS011;3884;48.616;12.872;2022-12-29T10:40:23;7.50;;;6.70;;
7683;SDS011;3884;48.616;12.872;2022-12-29T10:42:53;4.80;;;4.30;;
7683;SDS011;3884;48.616;12.872;2022-12-29T10:45:24;4.97;;;4.03;;
7683;SDS011;3884;48.616;12.872;2022-12-29T10:47:57;7.17;;;5.87;;
7683;SDS011;3884;48.616;12.872;2022-12-29T10:50:28;9.13;;;7.00;;
7683;SDS011;3884;48.616;12.872;2022-12-29T10:52:55;6.40;;;5.77;;
7683;SDS011;3884;48.616;12.872;2022-12-29T10:55:27;8.23;;;6.43;;
7683;SDS011;3884;48.616;12.872;2022-12-29T10:57:57;9.57;;;7.87;;
7683;SDS011;3884;48.616;12.872;2022-12-29T11:00:31;5.97;;;5.03;;
7683;SDS011;3884;48.616;12.872;2022-12-29T11:06:01;4.33;;;3.53;;
7683;SDS011;3884;48.616;12.872;2022-12-29T11:08:35;3.90;;;3.50;;
7683;SDS011;3884;48.616;12.872;2022-12-29T11:11:04;4.37;;;3.97;;
7683;SDS011;3884;48.616;12.872;2022-12-29T11:13:33;5.53;;;4.33;;
7683;SDS011;3884;48.616;12.872;2022-12-29T11:16:03;5.47;;;4.23;;
7683;SDS011;3884;48.616;12.872;2022-12-29T11:18:31;7.07;;;4.80;;
7683;SDS011;3884;48.616;12.872;2022-12-29T11:21:02;5.30;;;4.80;;
7683;SDS011;3884;48.616;12.872;2022-12-29T11:23:32;5.47;;;4.43;;
7683;SDS011;3884;48.616;12.872;2022-12-29T11:26:07;4.63;;;4.10;;
7683;SDS011;3884;48.616;12.872;2022-12-29T11:28:40;5.23;;;4.20;;
7683;SDS011;3884;48.616;12.872;2022-12-29T11:31:10;4.27;;;3.87;;
7683;SDS011;3884;48.616;12.872;2022-12-29T11:33:41;4.87;;;3.57;;
7683;SDS011;3884;48.616;12.872;2022-12-29T11:36:10;4.67;;;3.27;;
7683;SDS011;3884;48.616;12.872;2022-12-29T11:38:41;4.60;;;3.50;;
7683;SDS011;3884;48.616;12.872;2022-12-29T11:41:13;5.20;;;3.87;;
7683;SDS011;3884;48.616;12.872;2022-12-29T11:43:45;2.77;;;2.50;;
7683;SDS011;3884;48.616;12.872;2022-12-29T11:46:16;4.70;;;3.10;;
7683;SDS011;3884;48.616;12.872;2022-12-29T11:48:45;2.53;;;2.33;;
7683;SDS011;3884;48.616;12.872;2022-12-29T11:51:20;3.47;;;2.93;;
7683;SDS011;3884;48.616;12.872;2022-12-29T11:53:50;3.70;;;2.07;;
7683;SDS011;3884;48.616;12.872;2022-12-29T11:56:20;2.70;;;1.90;;
7683;SDS011;3884;48.616;12.872;2022-12-29T11:58:58;2.60;;;1.90;;
7683;SDS011;3884;48.616;12.872;2022-12-29T12:05:00;3.80;;;2.10;;
7683;SDS011;3884;48.616;12.872;2022-12-29T12:07:40;2.43;;;1.67;;
7683;SDS011;3884;48.616;12.872;2022-12-29T12:10:19;2.27;;;2.07;;
7683;SDS011;3884;48.616;12.872;2022-12-29T12:12:51;3.50;;;2.10;;
7683;SDS011;3884;48.616;12.872;2022-12-29T12:15:24;1.87;;;1.77;;
7683;SDS011;3884;48.616;12.872;2022-12-29T12:18:00;1.77;;;1.60;;
7683;SDS011;3884;48.616;12.872;2022-12-29T12:20:34;2.10;;;1.80;;
7683;SDS011;3884;48.616;12.872;2022-12-29T12:23:13;2.77;;;2.20;;
7683;SDS011;3884;48.616;12.872;2022-12-29T12:25:57;2.83;;;2.03;;
7683;SDS011;3884;48.616;12.872;2022-12-29T12:28:32;2.00;;;1.60;;
7683;SDS011;3884;48.616;12.872;2022-12-29T12:31:04;1.97;;;1.77;;
7683;SDS011;3884;48.616;12.872;2022-12-29T12:33:42;2.40;;;1.90;;
7683;SDS011;3884;48.616;12.872;2022-12-29T12:36:21;2.27;;;1.67;;
7683;SDS011;3884;48.616;12.872;2022-12-29T12:39:05;2.20;;;1.73;;
7683;SDS011;3884;48.616;12.872;2022-12-29T12:41:40;2.77;;;1.80;;
7683;SDS011;3884;48.616;12.872;2022-12-29T12:44:17;3.13;;;1.90;;
7683;SDS011;3884;48.616;12.872;2022-12-29T12:49:58;2.40;;;1.67;;
7683;SDS011;3884;48.616;12.872;2022-12-29T12:52:49;1.93;;;1.60;;
7683;SDS011;3884;48.616;12.872;2022-12-29T12:55:37;3.57;;;1.87;;
7683;SDS011;3884;48.616;12.872;2022-12-29T12:58:16;2.77;;;2.00;;
7683;SDS011;3884;48.616;12.872;2022-12-29T13:00:54;3.10;;;1.90;;
7683;SDS011;3884;48.616;12.872;2022-12-29T13:03:47;3.10;;;2.43;;
7683;SDS011;3884;48.616;12.872;2022-12-29T13:06:30;2.60;;;1.93;;
7683;SDS011;3884;48.616;12.872;2022-12-29T13:09:13;2.70;;;1.70;;
7683;SDS011;3884;48.616;12.872;2022-12-29T13:11:59;2.27;;;1.70;;
7683;SDS011;3884;48.616;12.872;2022-12-29T13:14:36;2.27;;;2.07;;
7683;SDS011;3884;48.616;12.872;2022-12-29T13:17:16;3.63;;;2.27;;
7683;SDS011;3884;48.616;12.872;2022-12-29T13:19:48;2.37;;;2.07;;
7683;SDS011;3884;48.616;12.872;2022-12-29T13:22:21;2.27;;;1.90;;
7683;SDS011;3884;48.616;12.872;2022-12-29T13:24:57;3.20;;;2.10;;
7683;SDS011;3884;48.616;12.872;2022-12-29T13:27:35;2.87;;;2.00;;
7683;SDS011;3884;48.616;12.872;2022-12-29T13:30:10;4.10;;;2.27;;
7683;SDS011;3884;48.616;12.872;2022-12-29T13:32:44;2.37;;;2.03;;
7683;SDS011;3884;48.616;12.872;2022-12-29T13:35:23;3.50;;;2.00;;
7683;SDS011;3884;48.616;12.872;2022-12-29T13:38:05;2.33;;;1.93;;
7683;SDS011;3884;48.616;12.872;2022-12-29T13:40:38;2.23;;;1.90;;
7683;SDS011;3884;48.616;12.872;2022-12-29T13:43:09;3.47;;;1.77;;
7683;SDS011;3884;48.616;12.872;2022-12-29T13:45:37;2.93;;;2.03;;
7683;SDS011;3884;48.616;12.872;2022-12-29T13:48:09;2.10;;;1.90;;
7683;SDS011;3884;48.616;12.872;2022-12-29T13:50:40;3.30;;;2.10;;
7683;SDS011;3884;48.616;12.872;2022-12-29T13:53:18;2.97;;;1.93;;
7683;SDS011;3884;48.616;12.872;2022-12-29T13:55:59;2.40;;;2.20;;
7683;SDS011;3884;48.616;12.872;2022-12-29T13:58:34;2.67;;;2.23;;
7683;SDS011;3884;48.616;12.872;2022-12-29T14:01:08;3.33;;;2.27;;
7683;SDS011;3884;48.616;12.872;2022-12-29T14:03:47;2.67;;;2.20;;
7683;SDS011;3884;48.616;12.872;2022-12-29T14:06:19;2.37;;;2.17;;
7683;SDS011;3884;48.616;12.872;2022-12-29T14:08:49;3.37;;;2.00;;
7683;SDS011;3884;48.616;12.872;2022-12-29T14:11:21;2.73;;;2.20;;
7683;SDS011;3884;48.616;12.872;2022-12-29T14:13:53;2.50;;;2.23;;
7683;SDS011;3884;48.616;12.872;2022-12-29T14:16:28;3.27;;;2.20;;
7683;SDS011;3884;48.616;12.872;2022-12-29T14:19:03;2.90;;;2.27;;
7683;SDS011;3884;48.616;12.872;2022-12-29T14:21:38;2.67;;;2.10;;
7683;SDS011;3884;48.616;12.872;2022-12-29T14:33:15;4.20;;;3.17;;
7683;SDS011;3884;48.616;12.872;2022-12-29T14:35:43;5.87;;;4.50;;
7683;SDS011;3884;48.616;12.872;2022-12-29T14:38:15;3.40;;;3.10;;
7683;SDS011;3884;48.616;12.872;2022-12-29T14:40:44;3.57;;;3.23;;
7683;SDS011;3884;48.616;12.872;2022-12-29T14:43:14;4.30;;;3.20;;
7683;SDS011;3884;48.616;12.872;2022-12-29T14:45:51;5.23;;;3.90;;
7683;SDS011;3884;48.616;12.872;2022-12-29T14:48:31;4.77;;;3.53;;
7683;SDS011;3884;48.616;12.872;2022-12-29T14:51:02;5.73;;;4.50;;
7683;SDS011;3884;48.616;12.872;2022-12-29T14:53:45;6.00;;;4.20;;
7683;SDS011;3884;48.616;12.872;2022-12-29T14:56:14;5.63;;;4.10;;
7683;SDS011;3884;48.616;12.872;2022-12-29T14:58:54;5.60;;;4.57;;
7683;SDS011;3884;48.616;12.872;2022-12-29T15:01:24;9.10;;;6.97;;
7683;SDS011;3884;48.616;12.872;2022-12-29T15:04:05;8.30;;;7.50;;
7683;SDS011;3884;48.616;12.872;2022-12-29T15:06:41;8.70;;;7.80;;
7683;SDS011;3884;48.616;12.872;2022-12-29T15:09:12;10.67;;;8.50;;
7683;SDS011;3884;48.616;12.872;2022-12-29T15:11:50;9.80;;;7.43;;
7683;SDS011;3884;48.616;12.872;2022-12-29T15:14:32;16.60;;;11.83;;
7683;SDS011;3884;48.616;12.872;2022-12-29T15:17:01;20.70;;;14.27;;
7683;SDS011;3884;48.616;12.872;2022-12-29T15:19:36;26.83;;;17.53;;
7683;SDS011;3884;48.616;12.872;2022-12-29T15:22:03;21.23;;;13.83;;
7683;SDS011;3884;48.616;12.872;2022-12-29T15:24:32;28.77;;;16.47;;
7683;SDS011;3884;48.616;12.872;2022-12-29T15:27:02;23.83;;;15.07;;
7683;SDS011;3884;48.616;12.872;2022-12-29T15:29:32;21.30;;;14.07;;
7683;SDS011;3884;48.616;12.872;2022-12-29T15:32:14;30.97;;;16.27;;
7683;SDS011;3884;48.616;12.872;2022-12-29T15:34:44;20.07;;;14.13;;
7683;SDS011;3884;48.616;12.872;2022-12-29T15:37:16;11.40;;;7.80;;
7683;SDS011;3884;48.616;12.872;2022-12-29T15:39:45;12.63;;;8.30;;
7683;SDS011;3884;48.616;12.872;2022-12-29T15:42:21;10.10;;;7.13;;
7683;SDS011;3884;48.616;12.872;2022-12-29T15:45:05;12.40;;;8.13;;